New Concord, OH (43762)

10:54 AM EDT on August 03, 2015 (GMT -0400)
Downtown Cambridge | | Change Station
CLOSE
Current Station
Personal Weather Station
Location: Cambridge, OH
Elevation: 876 ft
Nearby Weather Stations

Elev 876 ft 40.03 °N, 81.59 °W | Updated 23 seconds ago

Mostly Cloudy
Mostly Cloudy
76.0 °F
Feels Like 78 °F
N
6.0
Wind Variable Wind from SW
Gusts 7.0 mph

Today
High -- | Low -- °F
--% Chance of Precip.
Yesterday
High -- | Low -- °F
Precip. -- in
6:26 AM 8:38 PM
Waning Gibbous, 86% visible
Pressure 29.81 in
Visibility 10.0 miles
Clouds Clear
Heat Index 78 °F
Dew Point 60 °F
Humidity 58%
Rainfall 0.00 in
Snow Depth Not available.
UV 5 out of 12
Pollen 4.50 out of 12
Air Quality Not available.
Flu Activity Not available.
METAR KZZV 031353Z AUTO VRB05KT 10SM CLR 22/14 A2983 RMK AO2 SLP094 T02170139

More Conditions Fewer Conditions

Pressure 29.81 in
Visibility 10.0 miles
Clouds Clear
Heat Index 78 °F
Dew Point 60 °F
Humidity 58%
Rainfall 0.00 in
Snow Depth Not available.
UV 5 out of 12
Pollen 4.50 out of 12
Air Quality Not available.
Flu Activity Not available.
METAR KZZV 031353Z AUTO VRB05KT 10SM CLR 22/14 A2983 RMK AO2 SLP094 T02170139

More Conditions Fewer Conditions

10-Day Weather Forecast

×

Almanac

Astronomy

Aug. 03, 2015 Rise Set
Actual Time
Civil Twilight
Nautical Twilight
Astronomical Twilight
Moon
Length of Visible Light
Length of Day
Tomorrow will be .
, % of the Moon is Illuminated

Today's Extremes

State Highs State Lows

Community

WunderPhotos

Upload Photos

1,843,639 photos uploaded!

WunderBlogs® & News

Nearby

Air Quality

  Air Quality AQ Index Pollutant
Not available.

Snow Depth

Station Depth Elevation

Earthquake Activity

City Distance Mag. Time & Date
Minimum magnitude displayed is 2.5.

Coastal Water Temperatures

Place Temperature

Stations

Nearby Weather Stations

Station Location Temp. Windchill Dew Point Humidity Wind Precip. Elev Updated Type